Terminal Aerodrome Forecast
Issued by NWS Wakefield, VA

Home | Current Version | Previous Version | Text Only | Print | Product List | Glossary On
Versions: 1 2 3 4 5 6 7 8 9 10 11 12 13 14 15
000
FTUS41 KAKQ 270539
TAFORF
TAF
KORF 270539Z 2706/2806 20012KT P6SM BKN250
     FM270900 01014G22KT P6SM BKN015 OVC040
     FM271200 01014G22KT P6SM -SHRA SCT008 OVC015
     FM271600 02012KT 4SM -RA OVC012
     FM280300 36010KT P6SM BKN025=

USA.gov is the U.S. government's official web portal to all federal, state and local government web resources and services.